sensor_id;sensor_type;location;lat;lon;timestamp;P1;durP1;ratioP1;P2;durP2;ratioP2
38487;SDS011;57384;51.986;4.458;2022-11-15T00:00:39;24.55;;;6.70;;
38487;SDS011;57384;51.986;4.458;2022-11-15T00:03:25;26.17;;;8.02;;
38487;SDS011;57384;51.986;4.458;2022-11-15T00:06:12;23.50;;;6.95;;
38487;SDS011;57384;51.986;4.458;2022-11-15T00:08:59;25.27;;;5.97;;
38487;SDS011;57384;51.986;4.458;2022-11-15T00:11:44;30.40;;;7.40;;
38487;SDS011;57384;51.986;4.458;2022-11-15T00:14:28;28.20;;;6.45;;
38487;SDS011;57384;51.986;4.458;2022-11-15T00:17:12;23.40;;;6.72;;
38487;SDS011;57384;51.986;4.458;2022-11-15T00:19:58;32.30;;;8.23;;
38487;SDS011;57384;51.986;4.458;2022-11-15T00:22:43;24.98;;;7.00;;
38487;SDS011;57384;51.986;4.458;2022-11-15T00:25:27;27.85;;;6.78;;
38487;SDS011;57384;51.986;4.458;2022-11-15T00:28:11;29.33;;;7.88;;
38487;SDS011;57384;51.986;4.458;2022-11-15T00:31:02;28.52;;;7.43;;
38487;SDS011;57384;51.986;4.458;2022-11-15T00:33:48;30.48;;;8.05;;
38487;SDS011;57384;51.986;4.458;2022-11-15T00:36:33;22.92;;;6.00;;
38487;SDS011;57384;51.986;4.458;2022-11-15T00:39:20;24.17;;;5.85;;
38487;SDS011;57384;51.986;4.458;2022-11-15T00:42:04;34.63;;;7.82;;
38487;SDS011;57384;51.986;4.458;2022-11-15T00:44:48;34.33;;;9.85;;
38487;SDS011;57384;51.986;4.458;2022-11-15T00:47:32;30.05;;;7.63;;
38487;SDS011;57384;51.986;4.458;2022-11-15T00:50:17;33.42;;;8.93;;
38487;SDS011;57384;51.986;4.458;2022-11-15T00:53:01;37.20;;;9.38;;
38487;SDS011;57384;51.986;4.458;2022-11-15T00:55:46;32.15;;;8.13;;
38487;SDS011;57384;51.986;4.458;2022-11-15T00:58:30;34.55;;;6.65;;
38487;SDS011;57384;51.986;4.458;2022-11-15T01:01:14;37.38;;;9.25;;
38487;SDS011;57384;51.986;4.458;2022-11-15T01:04:01;31.27;;;8.60;;
38487;SDS011;57384;51.986;4.458;2022-11-15T01:06:53;35.35;;;8.10;;
38487;SDS011;57384;51.986;4.458;2022-11-15T01:10:01;34.50;;;9.55;;
38487;SDS011;57384;51.986;4.458;2022-11-15T01:12:48;37.17;;;8.40;;
38487;SDS011;57384;51.986;4.458;2022-11-15T01:15:33;25.63;;;7.43;;
38487;SDS011;57384;51.986;4.458;2022-11-15T01:18:17;32.40;;;7.65;;
38487;SDS011;57384;51.986;4.458;2022-11-15T01:21:05;35.97;;;9.13;;
38487;SDS011;57384;51.986;4.458;2022-11-15T01:23:54;29.73;;;8.35;;
38487;SDS011;57384;51.986;4.458;2022-11-15T01:26:39;43.58;;;10.43;;
38487;SDS011;57384;51.986;4.458;2022-11-15T01:29:24;35.15;;;8.60;;
38487;SDS011;57384;51.986;4.458;2022-11-15T01:32:08;37.55;;;10.23;;
38487;SDS011;57384;51.986;4.458;2022-11-15T01:34:53;36.15;;;9.45;;
38487;SDS011;57384;51.986;4.458;2022-11-15T01:37:37;37.95;;;10.85;;
38487;SDS011;57384;51.986;4.458;2022-11-15T01:40:24;32.13;;;8.57;;
38487;SDS011;57384;51.986;4.458;2022-11-15T01:43:21;40.38;;;10.55;;
38487;SDS011;57384;51.986;4.458;2022-11-15T01:49:17;28.55;;;8.65;;
38487;SDS011;57384;51.986;4.458;2022-11-15T01:52:05;38.78;;;10.82;;
38487;SDS011;57384;51.986;4.458;2022-11-15T01:58:11;25.08;;;7.93;;
38487;SDS011;57384;51.986;4.458;2022-11-15T02:00:55;33.60;;;8.15;;
38487;SDS011;57384;51.986;4.458;2022-11-15T02:03:41;27.70;;;8.68;;
38487;SDS011;57384;51.986;4.458;2022-11-15T02:06:43;38.33;;;9.75;;
38487;SDS011;57384;51.986;4.458;2022-11-15T02:09:29;41.55;;;10.00;;
38487;SDS011;57384;51.986;4.458;2022-11-15T02:12:17;37.50;;;9.27;;
38487;SDS011;57384;51.986;4.458;2022-11-15T02:15:08;37.97;;;9.40;;
38487;SDS011;57384;51.986;4.458;2022-11-15T02:21:10;32.58;;;9.52;;
38487;SDS011;57384;51.986;4.458;2022-11-15T02:33:33;34.20;;;8.75;;
38487;SDS011;57384;51.986;4.458;2022-11-15T02:39:41;34.53;;;9.90;;
38487;SDS011;57384;51.986;4.458;2022-11-15T02:42:39;33.22;;;9.25;;
38487;SDS011;57384;51.986;4.458;2022-11-15T02:48:19;34.60;;;10.35;;
38487;SDS011;57384;51.986;4.458;2022-11-15T02:51:08;30.27;;;8.52;;
38487;SDS011;57384;51.986;4.458;2022-11-15T02:56:38;31.58;;;9.77;;
38487;SDS011;57384;51.986;4.458;2022-11-15T02:59:38;31.45;;;9.18;;
38487;SDS011;57384;51.986;4.458;2022-11-15T03:08:44;26.27;;;8.32;;
38487;SDS011;57384;51.986;4.458;2022-11-15T03:11:35;22.70;;;8.02;;
38487;SDS011;57384;51.986;4.458;2022-11-15T03:14:24;23.20;;;7.40;;
38487;SDS011;57384;51.986;4.458;2022-11-15T03:20:11;22.77;;;7.38;;
38487;SDS011;57384;51.986;4.458;2022-11-15T03:23:04;20.45;;;6.90;;
38487;SDS011;57384;51.986;4.458;2022-11-15T03:25:51;21.65;;;7.65;;
38487;SDS011;57384;51.986;4.458;2022-11-15T03:28:44;21.55;;;6.95;;
38487;SDS011;57384;51.986;4.458;2022-11-15T03:31:44;22.98;;;6.28;;
38487;SDS011;57384;51.986;4.458;2022-11-15T03:34:34;23.80;;;6.22;;
38487;SDS011;57384;51.986;4.458;2022-11-15T03:37:37;18.52;;;6.15;;
38487;SDS011;57384;51.986;4.458;2022-11-15T03:40:33;20.63;;;5.57;;
38487;SDS011;57384;51.986;4.458;2022-11-15T03:43:44;17.83;;;5.07;;
38487;SDS011;57384;51.986;4.458;2022-11-15T03:46:42;18.17;;;5.38;;
38487;SDS011;57384;51.986;4.458;2022-11-15T03:49:41;14.73;;;5.95;;
38487;SDS011;57384;51.986;4.458;2022-11-15T03:52:47;12.75;;;4.07;;
38487;SDS011;57384;51.986;4.458;2022-11-15T03:55:32;14.88;;;4.07;;
38487;SDS011;57384;51.986;4.458;2022-11-15T03:58:17;12.60;;;3.72;;
38487;SDS011;57384;51.986;4.458;2022-11-15T04:01:01;10.27;;;4.13;;
38487;SDS011;57384;51.986;4.458;2022-11-15T04:03:48;11.82;;;3.25;;
38487;SDS011;57384;51.986;4.458;2022-11-15T04:06:32;12.07;;;2.97;;
38487;SDS011;57384;51.986;4.458;2022-11-15T04:09:16;14.57;;;3.63;;
38487;SDS011;57384;51.986;4.458;2022-11-15T04:12:02;9.35;;;2.22;;
38487;SDS011;57384;51.986;4.458;2022-11-15T04:14:46;14.35;;;3.40;;
38487;SDS011;57384;51.986;4.458;2022-11-15T04:17:30;11.02;;;2.67;;
38487;SDS011;57384;51.986;4.458;2022-11-15T04:20:16;12.57;;;2.45;;
38487;SDS011;57384;51.986;4.458;2022-11-15T04:23:00;13.35;;;2.75;;
38487;SDS011;57384;51.986;4.458;2022-11-15T04:25:46;9.60;;;1.58;;
38487;SDS011;57384;51.986;4.458;2022-11-15T04:28:34;12.30;;;2.38;;
38487;SDS011;57384;51.986;4.458;2022-11-15T04:31:18;10.93;;;2.22;;
38487;SDS011;57384;51.986;4.458;2022-11-15T04:34:02;8.45;;;2.47;;
38487;SDS011;57384;51.986;4.458;2022-11-15T04:36:46;9.93;;;1.52;;
38487;SDS011;57384;51.986;4.458;2022-11-15T04:39:30;12.32;;;2.40;;
38487;SDS011;57384;51.986;4.458;2022-11-15T04:42:14;9.48;;;2.30;;
38487;SDS011;57384;51.986;4.458;2022-11-15T04:44:58;8.95;;;2.20;;
38487;SDS011;57384;51.986;4.458;2022-11-15T04:47:43;14.40;;;3.60;;
38487;SDS011;57384;51.986;4.458;2022-11-15T04:50:28;7.13;;;2.03;;
38487;SDS011;57384;51.986;4.458;2022-11-15T04:53:12;5.72;;;1.95;;
38487;SDS011;57384;51.986;4.458;2022-11-15T04:55:56;8.30;;;2.58;;
38487;SDS011;57384;51.986;4.458;2022-11-15T04:58:40;8.05;;;2.22;;
38487;SDS011;57384;51.986;4.458;2022-11-15T05:01:24;8.52;;;2.15;;
38487;SDS011;57384;51.986;4.458;2022-11-15T05:04:08;8.82;;;2.50;;
38487;SDS011;57384;51.986;4.458;2022-11-15T05:06:52;7.47;;;1.70;;
38487;SDS011;57384;51.986;4.458;2022-11-15T05:09:36;11.25;;;2.60;;
38487;SDS011;57384;51.986;4.458;2022-11-15T05:12:20;7.97;;;1.45;;
38487;SDS011;57384;51.986;4.458;2022-11-15T05:15:05;11.05;;;2.17;;
38487;SDS011;57384;51.986;4.458;2022-11-15T05:17:49;9.60;;;1.98;;
38487;SDS011;57384;51.986;4.458;2022-11-15T05:20:33;9.68;;;1.42;;
38487;SDS011;57384;51.986;4.458;2022-11-15T05:23:17;9.18;;;1.67;;
38487;SDS011;57384;51.986;4.458;2022-11-15T05:26:02;8.25;;;1.90;;
38487;SDS011;57384;51.986;4.458;2022-11-15T05:28:51;11.55;;;2.22;;
38487;SDS011;57384;51.986;4.458;2022-11-15T05:31:39;8.45;;;1.70;;
38487;SDS011;57384;51.986;4.458;2022-11-15T05:34:24;4.90;;;1.38;;
38487;SDS011;57384;51.986;4.458;2022-11-15T05:37:09;12.93;;;1.90;;
38487;SDS011;57384;51.986;4.458;2022-11-15T05:39:54;4.88;;;1.45;;
38487;SDS011;57384;51.986;4.458;2022-11-15T05:42:37;5.88;;;1.40;;
38487;SDS011;57384;51.986;4.458;2022-11-15T05:45:22;6.95;;;1.20;;
38487;SDS011;57384;51.986;4.458;2022-11-15T05:48:06;3.97;;;1.10;;
38487;SDS011;57384;51.986;4.458;2022-11-15T05:50:53;6.70;;;1.00;;
38487;SDS011;57384;51.986;4.458;2022-11-15T05:53:37;4.35;;;0.82;;
38487;SDS011;57384;51.986;4.458;2022-11-15T05:56:21;5.28;;;0.80;;
38487;SDS011;57384;51.986;4.458;2022-11-15T05:59:05;11.93;;;0.98;;
38487;SDS011;57384;51.986;4.458;2022-11-15T06:01:52;3.85;;;0.80;;
38487;SDS011;57384;51.986;4.458;2022-11-15T06:04:36;6.32;;;1.17;;
38487;SDS011;57384;51.986;4.458;2022-11-15T06:07:20;5.45;;;0.90;;
38487;SDS011;57384;51.986;4.458;2022-11-15T06:10:04;9.20;;;1.17;;
38487;SDS011;57384;51.986;4.458;2022-11-15T06:12:55;6.50;;;1.08;;
38487;SDS011;57384;51.986;4.458;2022-11-15T06:15:40;4.30;;;0.50;;
38487;SDS011;57384;51.986;4.458;2022-11-15T06:18:25;5.03;;;0.60;;
38487;SDS011;57384;51.986;4.458;2022-11-15T06:21:08;2.10;;;0.50;;
38487;SDS011;57384;51.986;4.458;2022-11-15T06:23:53;6.85;;;1.17;;
38487;SDS011;57384;51.986;4.458;2022-11-15T06:26:37;4.22;;;0.77;;
38487;SDS011;57384;51.986;4.458;2022-11-15T06:29:21;3.90;;;0.40;;
38487;SDS011;57384;51.986;4.458;2022-11-15T06:32:05;3.50;;;0.50;;
38487;SDS011;57384;51.986;4.458;2022-11-15T06:34:49;2.22;;;0.50;;
38487;SDS011;57384;51.986;4.458;2022-11-15T06:37:33;6.50;;;0.40;;
38487;SDS011;57384;51.986;4.458;2022-11-15T06:40:17;4.22;;;0.60;;
38487;SDS011;57384;51.986;4.458;2022-11-15T06:43:02;4.80;;;0.47;;
38487;SDS011;57384;51.986;4.458;2022-11-15T06:45:47;4.18;;;0.57;;
38487;SDS011;57384;51.986;4.458;2022-11-15T06:48:31;1.98;;;0.40;;
38487;SDS011;57384;51.986;4.458;2022-11-15T06:51:17;4.40;;;0.52;;
38487;SDS011;57384;51.986;4.458;2022-11-15T06:54:01;5.97;;;0.40;;
38487;SDS011;57384;51.986;4.458;2022-11-15T06:56:46;2.85;;;0.47;;
38487;SDS011;57384;51.986;4.458;2022-11-15T06:59:30;6.07;;;0.60;;
38487;SDS011;57384;51.986;4.458;2022-11-15T07:02:17;8.48;;;0.50;;
38487;SDS011;57384;51.986;4.458;2022-11-15T07:05:04;4.88;;;0.40;;
38487;SDS011;57384;51.986;4.458;2022-11-15T07:07:53;2.90;;;0.57;;
38487;SDS011;57384;51.986;4.458;2022-11-15T07:10:40;1.65;;;0.50;;
38487;SDS011;57384;51.986;4.458;2022-11-15T07:13:25;3.22;;;0.50;;
38487;SDS011;57384;51.986;4.458;2022-11-15T07:16:10;3.05;;;0.50;;
38487;SDS011;57384;51.986;4.458;2022-11-15T07:18:55;3.95;;;0.60;;
38487;SDS011;57384;51.986;4.458;2022-11-15T07:21:41;1.88;;;0.40;;
38487;SDS011;57384;51.986;4.458;2022-11-15T07:24:28;3.30;;;0.50;;
38487;SDS011;57384;51.986;4.458;2022-11-15T07:27:12;2.22;;;0.73;;
38487;SDS011;57384;51.986;4.458;2022-11-15T07:29:56;2.65;;;0.45;;
38487;SDS011;57384;51.986;4.458;2022-11-15T07:32:41;5.65;;;0.50;;
38487;SDS011;57384;51.986;4.458;2022-11-15T07:35:25;2.60;;;0.60;;
38487;SDS011;57384;51.986;4.458;2022-11-15T07:38:10;10.90;;;0.70;;
38487;SDS011;57384;51.986;4.458;2022-11-15T07:41:01;6.65;;;0.40;;
38487;SDS011;57384;51.986;4.458;2022-11-15T07:43:46;2.13;;;0.30;;
38487;SDS011;57384;51.986;4.458;2022-11-15T07:46:31;5.50;;;0.35;;
38487;SDS011;57384;51.986;4.458;2022-11-15T07:49:16;1.73;;;0.40;;
38487;SDS011;57384;51.986;4.458;2022-11-15T07:52:00;4.05;;;0.47;;
38487;SDS011;57384;51.986;4.458;2022-11-15T07:54:44;2.78;;;0.40;;
38487;SDS011;57384;51.986;4.458;2022-11-15T07:57:28;3.30;;;0.95;;
38487;SDS011;57384;51.986;4.458;2022-11-15T08:00:13;3.30;;;0.50;;
38487;SDS011;57384;51.986;4.458;2022-11-15T08:03:05;4.75;;;0.60;;
38487;SDS011;57384;51.986;4.458;2022-11-15T08:05:57;5.38;;;0.60;;
38487;SDS011;57384;51.986;4.458;2022-11-15T08:08:41;4.75;;;0.55;;
38487;SDS011;57384;51.986;4.458;2022-11-15T08:11:25;4.07;;;0.40;;
38487;SDS011;57384;51.986;4.458;2022-11-15T08:14:09;1.75;;;0.40;;
38487;SDS011;57384;51.986;4.458;2022-11-15T08:16:56;2.42;;;0.50;;
38487;SDS011;57384;51.986;4.458;2022-11-15T08:19:43;3.30;;;0.30;;
38487;SDS011;57384;51.986;4.458;2022-11-15T08:22:27;3.83;;;0.50;;
38487;SDS011;57384;51.986;4.458;2022-11-15T08:25:11;5.65;;;0.60;;
38487;SDS011;57384;51.986;4.458;2022-11-15T08:27:56;12.07;;;0.68;;
38487;SDS011;57384;51.986;4.458;2022-11-15T08:30:42;3.03;;;0.50;;
38487;SDS011;57384;51.986;4.458;2022-11-15T08:33:27;1.40;;;0.40;;
38487;SDS011;57384;51.986;4.458;2022-11-15T08:36:17;2.95;;;0.60;;
38487;SDS011;57384;51.986;4.458;2022-11-15T08:39:01;4.60;;;0.60;;
38487;SDS011;57384;51.986;4.458;2022-11-15T08:41:46;3.17;;;0.40;;
38487;SDS011;57384;51.986;4.458;2022-11-15T08:44:30;4.20;;;0.70;;
38487;SDS011;57384;51.986;4.458;2022-11-15T08:47:14;3.70;;;0.60;;
38487;SDS011;57384;51.986;4.458;2022-11-15T08:49:58;3.83;;;0.50;;
38487;SDS011;57384;51.986;4.458;2022-11-15T08:52:42;6.00;;;0.60;;
38487;SDS011;57384;51.986;4.458;2022-11-15T08:55:28;4.75;;;0.68;;
38487;SDS011;57384;51.986;4.458;2022-11-15T09:01:16;4.15;;;0.60;;
38487;SDS011;57384;51.986;4.458;2022-11-15T09:04:02;5.75;;;0.40;;
38487;SDS011;57384;51.986;4.458;2022-11-15T09:06:46;2.38;;;0.50;;
38487;SDS011;57384;51.986;4.458;2022-11-15T09:09:30;2.60;;;0.40;;
38487;SDS011;57384;51.986;4.458;2022-11-15T09:12:14;7.28;;;0.50;;
38487;SDS011;57384;51.986;4.458;2022-11-15T09:14:58;4.57;;;0.60;;
38487;SDS011;57384;51.986;4.458;2022-11-15T09:17:42;3.95;;;0.55;;
38487;SDS011;57384;51.986;4.458;2022-11-15T09:20:30;3.63;;;0.57;;
38487;SDS011;57384;51.986;4.458;2022-11-15T09:23:14;3.05;;;0.57;;
38487;SDS011;57384;51.986;4.458;2022-11-15T09:26:01;2.25;;;0.50;;
38487;SDS011;57384;51.986;4.458;2022-11-15T09:28:46;1.90;;;0.50;;
38487;SDS011;57384;51.986;4.458;2022-11-15T09:31:30;7.80;;;0.57;;
38487;SDS011;57384;51.986;4.458;2022-11-15T09:34:15;4.50;;;0.30;;
38487;SDS011;57384;51.986;4.458;2022-11-15T09:36:59;6.65;;;0.57;;
38487;SDS011;57384;51.986;4.458;2022-11-15T09:39:43;1.45;;;0.50;;
38487;SDS011;57384;51.986;4.458;2022-11-15T09:42:44;1.90;;;0.40;;
38487;SDS011;57384;51.986;4.458;2022-11-15T09:57:16;2.05;;;0.30;;
38487;SDS011;57384;51.986;4.458;2022-11-15T10:06:17;3.17;;;0.40;;
38487;SDS011;57384;51.986;4.458;2022-11-15T10:09:17;4.53;;;0.40;;
38487;SDS011;57384;51.986;4.458;2022-11-15T10:12:08;3.00;;;0.32;;
38487;SDS011;57384;51.986;4.458;2022-11-15T10:15:13;4.18;;;0.30;;
38487;SDS011;57384;51.986;4.458;2022-11-15T10:24:27;2.20;;;0.20;;
38487;SDS011;57384;51.986;4.458;2022-11-15T10:27:16;3.28;;;0.45;;
38487;SDS011;57384;51.986;4.458;2022-11-15T10:30:02;3.72;;;0.28;;
38487;SDS011;57384;51.986;4.458;2022-11-15T10:32:53;1.73;;;0.30;;
38487;SDS011;57384;51.986;4.458;2022-11-15T10:35:37;8.10;;;0.43;;
38487;SDS011;57384;51.986;4.458;2022-11-15T10:38:21;3.42;;;0.20;;
38487;SDS011;57384;51.986;4.458;2022-11-15T10:41:06;2.97;;;0.30;;
38487;SDS011;57384;51.986;4.458;2022-11-15T10:49:52;2.92;;;0.30;;
38487;SDS011;57384;51.986;4.458;2022-11-15T10:52:44;1.15;;;0.20;;
38487;SDS011;57384;51.986;4.458;2022-11-15T11:01:33;4.07;;;0.20;;
38487;SDS011;57384;51.986;4.458;2022-11-15T11:04:30;1.00;;;0.20;;
38487;SDS011;57384;51.986;4.458;2022-11-15T11:07:34;2.05;;;0.17;;
38487;SDS011;57384;51.986;4.458;2022-11-15T11:10:19;3.33;;;0.20;;
38487;SDS011;57384;51.986;4.458;2022-11-15T11:13:22;5.18;;;0.20;;
38487;SDS011;57384;51.986;4.458;2022-11-15T11:16:21;1.83;;;0.10;;
38487;SDS011;57384;51.986;4.458;2022-11-15T11:19:22;7.50;;;0.63;;
38487;SDS011;57384;51.986;4.458;2022-11-15T11:25:30;4.50;;;0.10;;
38487;SDS011;57384;51.986;4.458;2022-11-15T11:31:43;0.70;;;0.10;;
38487;SDS011;57384;51.986;4.458;2022-11-15T11:47:21;3.90;;;0.17;;
38487;SDS011;57384;51.986;4.458;2022-11-15T11:50:18;3.75;;;0.20;;
38487;SDS011;57384;51.986;4.458;2022-11-15T11:53:12;1.58;;;0.10;;
38487;SDS011;57384;51.986;4.458;2022-11-15T11:55:58;1.92;;;0.10;;
38487;SDS011;57384;51.986;4.458;2022-11-15T11:58:48;3.60;;;0.25;;
38487;SDS011;57384;51.986;4.458;2022-11-15T12:01:43;0.55;;;0.17;;
38487;SDS011;57384;51.986;4.458;2022-11-15T12:04:35;0.98;;;0.10;;
38487;SDS011;57384;51.986;4.458;2022-11-15T12:07:27;1.98;;;0.10;;
38487;SDS011;57384;51.986;4.458;2022-11-15T12:10:18;1.27;;;0.20;;
38487;SDS011;57384;51.986;4.458;2022-11-15T12:13:16;2.83;;;0.10;;
38487;SDS011;57384;51.986;4.458;2022-11-15T12:19:22;2.50;;;0.10;;
38487;SDS011;57384;51.986;4.458;2022-11-15T12:22:10;2.67;;;0.10;;
38487;SDS011;57384;51.986;4.458;2022-11-15T12:24:57;1.60;;;0.10;;
38487;SDS011;57384;51.986;4.458;2022-11-15T12:27:59;1.95;;;0.10;;
38487;SDS011;57384;51.986;4.458;2022-11-15T12:30:51;1.00;;;0.10;;
38487;SDS011;57384;51.986;4.458;2022-11-15T12:36:35;3.40;;;0.10;;
38487;SDS011;57384;51.986;4.458;2022-11-15T12:40:03;4.00;;;0.43;;
38487;SDS011;57384;51.986;4.458;2022-11-15T12:45:49;1.35;;;0.00;;
38487;SDS011;57384;51.986;4.458;2022-11-15T12:57:37;1.30;;;0.10;;
38487;SDS011;57384;51.986;4.458;2022-11-15T13:03:23;0.50;;;0.00;;
38487;SDS011;57384;51.986;4.458;2022-11-15T13:09:52;3.13;;;0.00;;
38487;SDS011;57384;51.986;4.458;2022-11-15T13:12:52;2.80;;;0.03;;
38487;SDS011;57384;51.986;4.458;2022-11-15T13:15:53;6.63;;;0.20;;
38487;SDS011;57384;51.986;4.458;2022-11-15T13:18:53;1.70;;;0.00;;
38487;SDS011;57384;51.986;4.458;2022-11-15T13:21:47;4.93;;;0.10;;
38487;SDS011;57384;51.986;4.458;2022-11-15T13:24:37;2.25;;;0.10;;
38487;SDS011;57384;51.986;4.458;2022-11-15T13:30:16;3.97;;;0.00;;
38487;SDS011;57384;51.986;4.458;2022-11-15T13:33:15;1.30;;;0.00;;
38487;SDS011;57384;51.986;4.458;2022-11-15T13:36:28;2.58;;;0.00;;
38487;SDS011;57384;51.986;4.458;2022-11-15T13:39:29;1.52;;;0.03;;
38487;SDS011;57384;51.986;4.458;2022-11-15T13:42:15;0.45;;;0.00;;
38487;SDS011;57384;51.986;4.458;2022-11-15T13:45:03;0.20;;;0.00;;
38487;SDS011;57384;51.986;4.458;2022-11-15T13:47:55;0.88;;;0.03;;
38487;SDS011;57384;51.986;4.458;2022-11-15T13:50:46;1.70;;;0.10;;
38487;SDS011;57384;51.986;4.458;2022-11-15T13:53:33;0.38;;;0.00;;
38487;SDS011;57384;51.986;4.458;2022-11-15T13:56:22;0.30;;;0.00;;
38487;SDS011;57384;51.986;4.458;2022-11-15T14:02:19;0.80;;;0.05;;
38487;SDS011;57384;51.986;4.458;2022-11-15T14:05:14;0.15;;;0.00;;
38487;SDS011;57384;51.986;4.458;2022-11-15T14:08:13;1.67;;;0.05;;
38487;SDS011;57384;51.986;4.458;2022-11-15T14:14:34;0.05;;;0.00;;
38487;SDS011;57384;51.986;4.458;2022-11-15T14:20:19;2.33;;;0.10;;
38487;SDS011;57384;51.986;4.458;2022-11-15T14:23:24;0.40;;;0.00;;
38487;SDS011;57384;51.986;4.458;2022-11-15T14:26:27;3.20;;;0.10;;
38487;SDS011;57384;51.986;4.458;2022-11-15T14:29:26;1.15;;;0.10;;
38487;SDS011;57384;51.986;4.458;2022-11-15T14:32:13;1.85;;;0.10;;
38487;SDS011;57384;51.986;4.458;2022-11-15T14:35:24;6.18;;;0.10;;
38487;SDS011;57384;51.986;4.458;2022-11-15T14:40:56;1.25;;;0.08;;
38487;SDS011;57384;51.986;4.458;2022-11-15T14:43:40;3.75;;;0.10;;
38487;SDS011;57384;51.986;4.458;2022-11-15T14:46:24;2.53;;;0.10;;
38487;SDS011;57384;51.986;4.458;2022-11-15T14:49:08;2.38;;;0.08;;
38487;SDS011;57384;51.986;4.458;2022-11-15T14:51:55;1.08;;;0.10;;
38487;SDS011;57384;51.986;4.458;2022-11-15T14:54:39;1.10;;;0.05;;
38487;SDS011;57384;51.986;4.458;2022-11-15T14:57:23;3.72;;;0.00;;
38487;SDS011;57384;51.986;4.458;2022-11-15T15:00:08;0.43;;;0.10;;
38487;SDS011;57384;51.986;4.458;2022-11-15T15:02:53;1.83;;;0.10;;
38487;SDS011;57384;51.986;4.458;2022-11-15T15:05:39;0.40;;;0.00;;
38487;SDS011;57384;51.986;4.458;2022-11-15T15:08:24;1.25;;;0.10;;
38487;SDS011;57384;51.986;4.458;2022-11-15T15:11:10;1.40;;;0.10;;
38487;SDS011;57384;51.986;4.458;2022-11-15T15:13:58;1.92;;;0.63;;
38487;SDS011;57384;51.986;4.458;2022-11-15T15:16:42;1.40;;;0.10;;
38487;SDS011;57384;51.986;4.458;2022-11-15T15:19:26;2.25;;;0.10;;
38487;SDS011;57384;51.986;4.458;2022-11-15T15:22:17;1.88;;;0.10;;
38487;SDS011;57384;51.986;4.458;2022-11-15T15:25:02;0.63;;;0.00;;
38487;SDS011;57384;51.986;4.458;2022-11-15T15:27:54;1.23;;;0.10;;
38487;SDS011;57384;51.986;4.458;2022-11-15T15:30:38;0.82;;;0.10;;
38487;SDS011;57384;51.986;4.458;2022-11-15T15:33:23;1.63;;;0.10;;
38487;SDS011;57384;51.986;4.458;2022-11-15T15:36:16;2.33;;;0.05;;
38487;SDS011;57384;51.986;4.458;2022-11-15T15:39:02;2.83;;;0.10;;
38487;SDS011;57384;51.986;4.458;2022-11-15T15:41:46;2.63;;;0.17;;
38487;SDS011;57384;51.986;4.458;2022-11-15T15:44:30;0.90;;;0.10;;
38487;SDS011;57384;51.986;4.458;2022-11-15T15:47:21;1.67;;;0.10;;
38487;SDS011;57384;51.986;4.458;2022-11-15T15:53:10;1.58;;;0.10;;
38487;SDS011;57384;51.986;4.458;2022-11-15T15:55:55;1.35;;;0.10;;
38487;SDS011;57384;51.986;4.458;2022-11-15T15:58:39;0.75;;;0.10;;
38487;SDS011;57384;51.986;4.458;2022-11-15T16:01:23;0.73;;;0.13;;
38487;SDS011;57384;51.986;4.458;2022-11-15T16:04:08;0.85;;;0.10;;
38487;SDS011;57384;51.986;4.458;2022-11-15T16:06:52;6.22;;;0.10;;
38487;SDS011;57384;51.986;4.458;2022-11-15T16:09:41;0.77;;;0.10;;
38487;SDS011;57384;51.986;4.458;2022-11-15T16:12:25;3.70;;;0.10;;
38487;SDS011;57384;51.986;4.458;2022-11-15T16:15:11;0.75;;;0.10;;
38487;SDS011;57384;51.986;4.458;2022-11-15T16:21:19;1.00;;;0.10;;
38487;SDS011;57384;51.986;4.458;2022-11-15T16:24:06;3.97;;;0.10;;
38487;SDS011;57384;51.986;4.458;2022-11-15T16:26:50;0.75;;;0.10;;
38487;SDS011;57384;51.986;4.458;2022-11-15T16:29:38;1.67;;;0.20;;
38487;SDS011;57384;51.986;4.458;2022-11-15T16:33:00;1.08;;;0.20;;
38487;SDS011;57384;51.986;4.458;2022-11-15T16:35:47;1.55;;;0.10;;
38487;SDS011;57384;51.986;4.458;2022-11-15T16:38:31;1.30;;;0.30;;
38487;SDS011;57384;51.986;4.458;2022-11-15T16:41:16;0.70;;;0.10;;
38487;SDS011;57384;51.986;4.458;2022-11-15T16:44:00;3.40;;;0.30;;
38487;SDS011;57384;51.986;4.458;2022-11-15T16:46:47;0.38;;;0.10;;
38487;SDS011;57384;51.986;4.458;2022-11-15T16:49:34;3.58;;;0.10;;
38487;SDS011;57384;51.986;4.458;2022-11-15T16:52:18;2.15;;;0.10;;
38487;SDS011;57384;51.986;4.458;2022-11-15T16:55:04;1.45;;;0.20;;
38487;SDS011;57384;51.986;4.458;2022-11-15T16:57:49;1.52;;;0.20;;
38487;SDS011;57384;51.986;4.458;2022-11-15T17:00:33;1.80;;;0.20;;
38487;SDS011;57384;51.986;4.458;2022-11-15T17:03:17;0.95;;;0.15;;
38487;SDS011;57384;51.986;4.458;2022-11-15T17:06:02;3.58;;;0.10;;
38487;SDS011;57384;51.986;4.458;2022-11-15T17:08:46;0.60;;;0.10;;
38487;SDS011;57384;51.986;4.458;2022-11-15T17:11:31;2.40;;;0.10;;
38487;SDS011;57384;51.986;4.458;2022-11-15T17:14:15;0.50;;;0.10;;
38487;SDS011;57384;51.986;4.458;2022-11-15T17:17:00;5.20;;;0.20;;
38487;SDS011;57384;51.986;4.458;2022-11-15T17:19:44;1.55;;;0.20;;
38487;SDS011;57384;51.986;4.458;2022-11-15T17:22:28;2.60;;;0.20;;
38487;SDS011;57384;51.986;4.458;2022-11-15T17:25:16;1.02;;;0.20;;
38487;SDS011;57384;51.986;4.458;2022-11-15T17:28:00;2.20;;;0.28;;
38487;SDS011;57384;51.986;4.458;2022-11-15T17:30:44;1.67;;;0.20;;
38487;SDS011;57384;51.986;4.458;2022-11-15T17:33:28;1.33;;;0.10;;
38487;SDS011;57384;51.986;4.458;2022-11-15T17:36:17;3.03;;;0.20;;
38487;SDS011;57384;51.986;4.458;2022-11-15T17:39:01;1.25;;;0.22;;
38487;SDS011;57384;51.986;4.458;2022-11-15T17:41:46;1.70;;;0.30;;
38487;SDS011;57384;51.986;4.458;2022-11-15T17:44:31;1.73;;;0.20;;
38487;SDS011;57384;51.986;4.458;2022-11-15T17:47:16;2.10;;;0.10;;
38487;SDS011;57384;51.986;4.458;2022-11-15T17:50:00;2.20;;;0.28;;
38487;SDS011;57384;51.986;4.458;2022-11-15T17:52:44;3.00;;;0.20;;
38487;SDS011;57384;51.986;4.458;2022-11-15T17:55:28;0.85;;;0.20;;
38487;SDS011;57384;51.986;4.458;2022-11-15T17:58:12;0.63;;;0.20;;
38487;SDS011;57384;51.986;4.458;2022-11-15T18:04:07;1.27;;;0.30;;
38487;SDS011;57384;51.986;4.458;2022-11-15T18:06:53;2.60;;;0.30;;
38487;SDS011;57384;51.986;4.458;2022-11-15T18:09:37;1.20;;;0.30;;
38487;SDS011;57384;51.986;4.458;2022-11-15T18:12:22;1.50;;;0.20;;
38487;SDS011;57384;51.986;4.458;2022-11-15T18:15:06;1.27;;;0.40;;
38487;SDS011;57384;51.986;4.458;2022-11-15T18:17:50;1.60;;;0.22;;
38487;SDS011;57384;51.986;4.458;2022-11-15T18:20:34;1.52;;;0.40;;
38487;SDS011;57384;51.986;4.458;2022-11-15T18:23:18;2.33;;;0.40;;
38487;SDS011;57384;51.986;4.458;2022-11-15T18:26:03;3.42;;;0.38;;
38487;SDS011;57384;51.986;4.458;2022-11-15T18:28:50;1.52;;;0.40;;
38487;SDS011;57384;51.986;4.458;2022-11-15T18:31:34;1.80;;;0.40;;
38487;SDS011;57384;51.986;4.458;2022-11-15T18:34:18;2.42;;;0.47;;
38487;SDS011;57384;51.986;4.458;2022-11-15T18:37:08;2.10;;;0.22;;
38487;SDS011;57384;51.986;4.458;2022-11-15T18:39:52;2.17;;;0.40;;
38487;SDS011;57384;51.986;4.458;2022-11-15T18:42:43;1.95;;;0.40;;
38487;SDS011;57384;51.986;4.458;2022-11-15T18:45:27;2.03;;;0.60;;
38487;SDS011;57384;51.986;4.458;2022-11-15T18:48:11;1.70;;;0.30;;
38487;SDS011;57384;51.986;4.458;2022-11-15T18:50:59;1.25;;;0.40;;
38487;SDS011;57384;51.986;4.458;2022-11-15T18:53:44;2.95;;;0.40;;
38487;SDS011;57384;51.986;4.458;2022-11-15T18:56:36;1.48;;;0.47;;
38487;SDS011;57384;51.986;4.458;2022-11-15T18:59:24;2.15;;;0.30;;
38487;SDS011;57384;51.986;4.458;2022-11-15T19:04:54;3.17;;;0.40;;
38487;SDS011;57384;51.986;4.458;2022-11-15T19:07:38;4.15;;;0.50;;
38487;SDS011;57384;51.986;4.458;2022-11-15T19:10:25;1.77;;;0.40;;
38487;SDS011;57384;51.986;4.458;2022-11-15T19:13:09;2.05;;;0.50;;